createdAt,value
2023-05-16T00:01:05.386Z,12.00
2023-05-16T00:06:07.987Z,9.20
2023-05-16T00:11:10.541Z,9.20
2023-05-16T00:16:14.599Z,10.10
2023-05-16T00:21:17.285Z,12.40
2023-05-16T00:26:20.294Z,10.30
2023-05-16T00:31:23.241Z,11.50
2023-05-16T00:36:25.965Z,10.60
2023-05-16T00:41:28.604Z,10.30
2023-05-16T00:46:31.159Z,10.40
2023-05-16T00:51:34.093Z,8.80
2023-05-16T00:56:36.934Z,10.80
2023-05-16T01:01:41.435Z,10.90
2023-05-16T01:06:44.739Z,11.20
2023-05-16T01:11:55.925Z,10.20
2023-05-16T01:17:12.632Z,12.80
2023-05-16T01:22:37.418Z,12.40
2023-05-16T01:27:40.869Z,11.60
2023-05-16T01:32:43.776Z,11.20
2023-05-16T01:38:00.887Z,11.10
2023-05-16T01:43:08.619Z,11.60
2023-05-16T01:48:17.974Z,14.10
2023-05-16T01:53:29.590Z,11.20
2023-05-16T01:58:33.898Z,10.50
2023-05-16T02:03:36.448Z,10.10
2023-05-16T02:08:39.070Z,10.10
2023-05-16T02:13:42.603Z,12.80
2023-05-16T02:18:45.837Z,9.90
2023-05-16T02:23:48.464Z,12.80
2023-05-16T02:28:51.203Z,9.40
2023-05-16T02:33:53.752Z,11.50
2023-05-16T02:38:56.297Z,9.90
2023-05-16T02:43:58.798Z,11.10
2023-05-16T02:49:01.884Z,12.00
2023-05-16T02:54:04.687Z,10.40
2023-05-16T02:59:07.565Z,14.30
2023-05-16T03:04:10.191Z,9.50
2023-05-16T03:09:12.752Z,12.50
2023-05-16T03:14:15.263Z,11.40
2023-05-16T03:19:17.860Z,11.10
2023-05-16T03:24:22.882Z,11.30
2023-05-16T03:29:27.104Z,9.90
2023-05-16T03:34:29.647Z,11.30
2023-05-16T03:39:32.148Z,9.70
2023-05-16T03:44:34.646Z,8.60
2023-05-16T03:49:37.422Z,9.50
2023-05-16T03:54:40.021Z,11.00
2023-05-16T03:59:42.838Z,11.50
2023-05-16T04:04:45.832Z,8.70
2023-05-16T04:09:48.440Z,8.90
2023-05-16T04:14:50.978Z,8.40
2023-05-16T04:19:53.517Z,9.70
2023-05-16T04:24:57.053Z,13.40
2023-05-16T04:29:59.861Z,10.00
2023-05-16T04:35:02.851Z,11.10
2023-05-16T04:40:07.697Z,10.20
2023-05-16T04:45:14.597Z,13.50
2023-05-16T04:50:18.131Z,10.40
2023-05-16T04:55:20.844Z,10.50
2023-05-16T05:00:23.593Z,9.70
2023-05-16T05:05:26.364Z,11.50
2023-05-16T05:10:31.088Z,8.80
2023-05-16T05:15:33.710Z,9.40
2023-05-16T05:20:36.272Z,9.60
2023-05-16T05:25:39.415Z,6.50
2023-05-16T05:30:43.184Z,6.70
2023-05-16T05:35:46.000Z,7.50
2023-05-16T05:40:49.617Z,7.10
2023-05-16T05:45:52.368Z,5.30
2023-05-16T05:50:54.954Z,5.40
2023-05-16T05:55:57.451Z,7.00
2023-05-16T06:01:00.042Z,2.80
2023-05-16T06:06:03.947Z,2.70
2023-05-16T06:11:07.399Z,3.20
2023-05-16T06:16:09.986Z,2.90
2023-05-16T06:21:12.624Z,3.20
2023-05-16T06:26:15.767Z,2.40
2023-05-16T06:31:18.339Z,2.90
2023-05-16T06:36:21.098Z,3.90
2023-05-16T06:41:23.718Z,2.80
2023-05-16T06:46:26.346Z,2.60
2023-05-16T06:51:29.063Z,3.30
2023-05-16T06:56:32.809Z,4.50
2023-05-16T07:01:35.450Z,3.50
2023-05-16T07:06:38.355Z,3.70
2023-05-16T07:11:41.060Z,3.70
2023-05-16T07:16:44.141Z,3.90
2023-05-16T07:21:46.884Z,7.10
2023-05-16T07:26:50.202Z,7.30
2023-05-16T07:31:52.945Z,8.80
2023-05-16T07:36:55.716Z,8.20
2023-05-16T07:41:58.478Z,8.80
2023-05-16T07:47:01.104Z,5.40
2023-05-16T07:52:04.065Z,5.30
2023-05-16T07:57:07.409Z,3.20
2023-05-16T08:02:11.245Z,6.80
2023-05-16T08:07:13.924Z,5.20
2023-05-16T08:12:16.551Z,4.10
2023-05-16T08:17:19.145Z,3.20
2023-05-16T08:22:21.747Z,2.80
2023-05-16T08:27:24.679Z,5.10
2023-05-16T08:32:27.451Z,8.30
2023-05-16T08:37:30.112Z,11.00
2023-05-16T08:42:34.040Z,7.20
2023-05-16T08:47:41.601Z,7.90
2023-05-16T08:52:47.247Z,8.10
2023-05-16T08:57:53.483Z,6.00
2023-05-16T09:02:56.593Z,4.40
2023-05-16T09:08:00.657Z,2.80
2023-05-16T09:13:05.515Z,4.10
2023-05-16T09:18:16.603Z,3.30
2023-05-16T09:23:25.700Z,8.80
2023-05-16T09:28:28.817Z,3.30
2023-05-16T09:33:31.688Z,1.70
2023-05-16T09:38:34.298Z,2.80
2023-05-16T09:43:41.802Z,4.50
2023-05-16T09:48:46.686Z,1.70
2023-05-16T09:53:49.621Z,1.40
2023-05-16T09:58:52.611Z,2.00
2023-05-16T10:03:55.831Z,2.30
2023-05-16T10:09:00.548Z,2.30
2023-05-16T10:14:07.953Z,1.80
2023-05-16T10:19:11.656Z,3.10
2023-05-16T10:24:22.400Z,2.40
2023-05-16T10:29:26.112Z,5.10
2023-05-16T10:34:29.390Z,1.40
2023-05-16T10:39:32.358Z,2.90
2023-05-16T10:44:38.661Z,5.60
2023-05-16T10:49:41.876Z,2.00
2023-05-16T10:54:54.041Z,2.70
2023-05-16T11:00:01.666Z,1.70
2023-05-16T11:05:06.784Z,2.70
2023-05-16T11:10:14.673Z,1.80
2023-05-16T11:15:28.903Z,1.60
2023-05-16T11:20:34.391Z,2.40
2023-05-16T11:30:46.261Z,10.10
2023-05-16T11:41:16.875Z,2.00
2023-05-16T11:46:21.554Z,3.00
2023-05-16T11:51:24.462Z,2.40
2023-05-16T11:56:27.648Z,2.00
2023-05-16T12:01:35.475Z,3.90
2023-05-16T12:06:38.679Z,2.20
2023-05-16T12:11:43.504Z,2.20
2023-05-16T12:16:46.679Z,5.20
2023-05-16T12:21:53.370Z,4.70
2023-05-16T12:26:57.516Z,2.40
2023-05-16T12:32:00.239Z,5.30
2023-05-16T12:37:03.101Z,4.40
2023-05-16T12:42:07.346Z,6.20
2023-05-16T12:47:14.402Z,3.70
2023-05-16T12:52:21.500Z,8.10
2023-05-16T12:57:24.143Z,5.40
2023-05-16T13:02:26.863Z,4.60
2023-05-16T13:07:30.698Z,7.60
2023-05-16T13:12:33.622Z,5.30
2023-05-16T13:17:37.486Z,3.80
2023-05-16T13:22:44.832Z,8.10
2023-05-16T13:27:49.489Z,4.40
2023-05-16T13:32:52.780Z,3.40
2023-05-16T13:37:56.029Z,4.30
2023-05-16T13:42:58.809Z,5.00
2023-05-16T13:48:01.806Z,3.20
2023-05-16T13:53:04.498Z,4.10
2023-05-16T13:58:07.137Z,4.90
2023-05-16T14:03:09.910Z,4.20
2023-05-16T14:08:14.375Z,4.80
2023-05-16T14:13:17.045Z,3.90
2023-05-16T14:18:20.012Z,7.50
2023-05-16T14:23:25.909Z,5.00
2023-05-16T14:28:28.726Z,4.00
2023-05-16T14:33:32.940Z,5.00
2023-05-16T14:38:36.055Z,7.70
2023-05-16T14:43:38.965Z,6.50
2023-05-16T14:48:41.645Z,5.20
2023-05-16T14:53:46.617Z,7.80
2023-05-16T14:58:49.805Z,4.80
2023-05-16T15:03:55.974Z,6.20
2023-05-16T15:08:59.110Z,6.00
2023-05-16T15:14:02.017Z,11.70
2023-05-16T15:19:04.851Z,8.30
2023-05-16T15:24:08.296Z,8.20
2023-05-16T15:29:11.443Z,9.00
2023-05-16T15:34:14.157Z,7.50
2023-05-16T15:39:16.795Z,6.10
2023-05-16T15:44:19.374Z,6.40
2023-05-16T15:49:22.160Z,5.10
2023-05-16T15:54:24.781Z,5.60
2023-05-16T15:59:27.440Z,11.60
2023-05-16T16:04:30.059Z,9.10
2023-05-16T16:09:32.690Z,4.90
2023-05-16T16:14:35.301Z,5.00
2023-05-16T16:19:37.935Z,4.70
2023-05-16T16:24:40.923Z,7.90
2023-05-16T16:29:43.553Z,13.60
2023-05-16T16:34:46.128Z,6.90
2023-05-16T16:39:48.749Z,5.30
2023-05-16T16:44:55.327Z,7.40
2023-05-16T16:49:58.651Z,7.30
2023-05-16T16:55:01.391Z,9.90
2023-05-16T17:00:07.306Z,10.80
2023-05-16T17:05:10.533Z,9.20
2023-05-16T17:10:13.205Z,9.70
2023-05-16T17:15:17.495Z,9.50
2023-05-16T17:20:20.264Z,8.30
2023-05-16T17:25:23.096Z,8.00
2023-05-16T17:30:26.278Z,11.30
2023-05-16T17:35:29.358Z,9.90
2023-05-16T17:40:32.661Z,11.90
2023-05-16T17:45:35.390Z,13.00
2023-05-16T17:50:38.040Z,12.60
2023-05-16T17:55:40.728Z,11.70
2023-05-16T18:00:48.488Z,10.90
2023-05-16T18:05:51.802Z,10.40
2023-05-16T18:10:55.685Z,7.70
2023-05-16T18:15:58.376Z,10.70
2023-05-16T18:21:01.115Z,9.00
2023-05-16T18:26:03.840Z,9.30
2023-05-16T18:31:06.933Z,10.40
2023-05-16T18:36:10.408Z,10.20
2023-05-16T18:41:13.079Z,11.20
2023-05-16T18:46:15.672Z,12.30
2023-05-16T18:51:18.618Z,9.70
2023-05-16T18:56:22.438Z,14.00
2023-05-16T19:01:25.574Z,11.60
2023-05-16T19:06:28.340Z,9.90
2023-05-16T19:11:30.991Z,13.40
2023-05-16T19:16:34.243Z,11.00
2023-05-16T19:21:38.022Z,8.10
2023-05-16T19:26:40.773Z,11.10
2023-05-16T19:31:43.420Z,16.40
2023-05-16T19:36:46.858Z,11.00
2023-05-16T19:41:52.296Z,11.60
2023-05-16T19:51:57.854Z,12.10
2023-05-16T19:57:00.541Z,13.20
2023-05-16T20:02:04.325Z,12.40
2023-05-16T20:07:07.512Z,12.40
2023-05-16T20:12:10.237Z,14.40
2023-05-16T20:17:12.939Z,11.50
2023-05-16T20:22:15.745Z,13.10
2023-05-16T20:27:18.380Z,9.20
2023-05-16T20:32:21.318Z,12.60
2023-05-16T20:37:26.839Z,13.40
2023-05-16T20:42:29.671Z,10.30
2023-05-16T20:47:32.338Z,16.90
2023-05-16T20:52:34.980Z,15.30
2023-05-16T20:57:37.623Z,15.30
2023-05-16T21:02:42.892Z,15.70
2023-05-16T21:07:46.729Z,13.30
2023-05-16T21:12:51.262Z,11.50
2023-05-16T21:17:53.916Z,14.70
2023-05-16T21:22:57.274Z,14.00
2023-05-16T21:28:00.540Z,10.00
2023-05-16T21:33:03.286Z,8.70
2023-05-16T21:38:06.349Z,7.80
2023-05-16T21:43:08.983Z,11.80
2023-05-16T21:48:12.042Z,13.00
2023-05-16T21:53:14.803Z,13.30
2023-05-16T21:58:19.159Z,13.20
2023-05-16T22:03:24.486Z,13.40
2023-05-16T22:08:27.142Z,7.60
2023-05-16T22:13:29.753Z,8.00
2023-05-16T22:18:33.368Z,9.50
2023-05-16T22:23:36.402Z,10.20
2023-05-16T22:28:39.018Z,9.60
2023-05-16T22:33:41.753Z,10.20
2023-05-16T22:38:44.471Z,11.00
2023-05-16T22:43:47.141Z,10.20
2023-05-16T22:48:49.849Z,9.00
2023-05-16T22:53:52.467Z,8.00
2023-05-16T22:58:55.173Z,9.10
2023-05-16T23:03:57.862Z,12.00
2023-05-16T23:09:00.781Z,6.70
2023-05-16T23:14:03.378Z,10.20
2023-05-16T23:19:09.124Z,8.00
2023-05-16T23:24:12.174Z,6.30
2023-05-16T23:29:14.768Z,8.70
2023-05-16T23:34:17.358Z,9.50
2023-05-16T23:39:21.373Z,9.50
2023-05-16T23:44:23.952Z,10.30
2023-05-16T23:49:26.724Z,10.90
2023-05-16T23:54:29.531Z,11.10
2023-05-16T23:59:32.125Z,9.00
